sensor_id;sensor_type;location;lat;lon;timestamp;temperature;humidity
55026;DHT22;40925;45.666;18.994;2023-08-31T00:02:13;461.30;2380.80
55026;DHT22;40925;45.666;18.994;2023-08-31T00:04:39;461.30;2380.80
55026;DHT22;40925;45.666;18.994;2023-08-31T00:07:05;461.30;2380.80
55026;DHT22;40925;45.666;18.994;2023-08-31T00:09:32;461.30;2380.80
55026;DHT22;40925;45.666;18.994;2023-08-31T00:11:58;461.30;2380.80
55026;DHT22;40925;45.666;18.994;2023-08-31T00:14:24;461.30;2380.80
55026;DHT22;40925;45.666;18.994;2023-08-31T00:16:50;461.30;2380.80
55026;DHT22;40925;45.666;18.994;2023-08-31T00:19:16;461.30;2380.80
55026;DHT22;40925;45.666;18.994;2023-08-31T00:21:42;461.40;2380.80
55026;DHT22;40925;45.666;18.994;2023-08-31T00:24:08;461.40;2380.80
55026;DHT22;40925;45.666;18.994;2023-08-31T00:26:36;461.40;2380.80
55026;DHT22;40925;45.666;18.994;2023-08-31T00:29:05;461.40;2380.80
55026;DHT22;40925;45.666;18.994;2023-08-31T00:31:31;461.40;2380.80
55026;DHT22;40925;45.666;18.994;2023-08-31T00:33:56;461.40;2380.80
55026;DHT22;40925;45.666;18.994;2023-08-31T00:36:22;461.40;2380.80
55026;DHT22;40925;45.666;18.994;2023-08-31T00:38:48;461.40;2380.80
55026;DHT22;40925;45.666;18.994;2023-08-31T00:41:14;461.40;2380.80
55026;DHT22;40925;45.666;18.994;2023-08-31T00:43:40;461.40;2380.80
55026;DHT22;40925;45.666;18.994;2023-08-31T00:46:06;461.30;2380.80
55026;DHT22;40925;45.666;18.994;2023-08-31T00:48:32;461.30;2380.80
55026;DHT22;40925;45.666;18.994;2023-08-31T00:50:58;461.30;2380.80
55026;DHT22;40925;45.666;18.994;2023-08-31T00:53:23;461.30;2380.80
55026;DHT22;40925;45.666;18.994;2023-08-31T00:55:51;461.30;2380.80
55026;DHT22;40925;45.666;18.994;2023-08-31T00:58:16;461.30;2380.80
55026;DHT22;40925;45.666;18.994;2023-08-31T01:12:03;461.50;2380.80
55026;DHT22;40925;45.666;18.994;2023-08-31T01:14:54;461.50;2380.80
55026;DHT22;40925;45.666;18.994;2023-08-31T01:17:20;461.60;2380.80
55026;DHT22;40925;45.666;18.994;2023-08-31T01:19:55;461.60;2380.80
55026;DHT22;40925;45.666;18.994;2023-08-31T01:22:42;461.60;2380.80
55026;DHT22;40925;45.666;18.994;2023-08-31T01:25:09;461.70;2380.80
55026;DHT22;40925;45.666;18.994;2023-08-31T01:27:36;486.60;2380.80
55026;DHT22;40925;45.666;18.994;2023-08-31T01:34:57;486.70;2380.80
55026;DHT22;40925;45.666;18.994;2023-08-31T01:37:53;486.50;2380.80
55026;DHT22;40925;45.666;18.994;2023-08-31T01:40:23;486.50;2380.80
55026;DHT22;40925;45.666;18.994;2023-08-31T01:42:50;486.50;2380.80
55026;DHT22;40925;45.666;18.994;2023-08-31T01:45:20;486.50;2380.80
55026;DHT22;40925;45.666;18.994;2023-08-31T01:48:06;486.50;2380.80
55026;DHT22;40925;45.666;18.994;2023-08-31T01:50:32;486.50;2380.80
55026;DHT22;40925;45.666;18.994;2023-08-31T01:52:58;486.50;2380.80
55026;DHT22;40925;45.666;18.994;2023-08-31T01:55:26;486.50;2380.80
55026;DHT22;40925;45.666;18.994;2023-08-31T01:57:52;486.50;2380.80
55026;DHT22;40925;45.666;18.994;2023-08-31T02:00:19;486.50;2380.80
55026;DHT22;40925;45.666;18.994;2023-08-31T02:02:45;486.50;2380.80
55026;DHT22;40925;45.666;18.994;2023-08-31T02:05:11;486.50;2380.80
55026;DHT22;40925;45.666;18.994;2023-08-31T02:07:36;486.40;2380.80
55026;DHT22;40925;45.666;18.994;2023-08-31T02:10:03;486.50;2380.80
55026;DHT22;40925;45.666;18.994;2023-08-31T02:12:32;486.40;2380.80
55026;DHT22;40925;45.666;18.994;2023-08-31T02:14:57;486.40;2380.80
55026;DHT22;40925;45.666;18.994;2023-08-31T02:17:23;486.40;2380.80
55026;DHT22;40925;45.666;18.994;2023-08-31T02:19:49;486.50;2380.80
55026;DHT22;40925;45.666;18.994;2023-08-31T02:22:14;486.50;2380.80
55026;DHT22;40925;45.666;18.994;2023-08-31T02:24:40;486.40;2380.80
55026;DHT22;40925;45.666;18.994;2023-08-31T02:27:06;486.40;2380.80
55026;DHT22;40925;45.666;18.994;2023-08-31T02:29:31;486.40;2380.80
55026;DHT22;40925;45.666;18.994;2023-08-31T02:31:57;486.40;2380.80
55026;DHT22;40925;45.666;18.994;2023-08-31T02:34:23;486.40;2380.80
55026;DHT22;40925;45.666;18.994;2023-08-31T02:36:49;486.40;2380.80
55026;DHT22;40925;45.666;18.994;2023-08-31T02:39:14;486.40;2380.80
55026;DHT22;40925;45.666;18.994;2023-08-31T02:41:41;486.50;2380.80
55026;DHT22;40925;45.666;18.994;2023-08-31T02:44:07;486.50;2380.80
55026;DHT22;40925;45.666;18.994;2023-08-31T02:46:32;486.50;2380.80
55026;DHT22;40925;45.666;18.994;2023-08-31T02:48:58;486.40;2380.80
55026;DHT22;40925;45.666;18.994;2023-08-31T02:51:24;486.40;2380.80
55026;DHT22;40925;45.666;18.994;2023-08-31T02:53:49;486.50;2380.80
55026;DHT22;40925;45.666;18.994;2023-08-31T02:56:15;486.50;2380.80
55026;DHT22;40925;45.666;18.994;2023-08-31T02:58:41;486.40;2380.80
55026;DHT22;40925;45.666;18.994;2023-08-31T03:01:11;486.40;2380.80
55026;DHT22;40925;45.666;18.994;2023-08-31T03:03:41;486.40;2380.80
55026;DHT22;40925;45.666;18.994;2023-08-31T03:06:08;486.40;2380.80
55026;DHT22;40925;45.666;18.994;2023-08-31T03:08:35;461.70;2380.80
55026;DHT22;40925;45.666;18.994;2023-08-31T03:11:02;461.70;2380.80
55026;DHT22;40925;45.666;18.994;2023-08-31T03:13:28;461.60;2380.80
55026;DHT22;40925;45.666;18.994;2023-08-31T03:15:53;461.60;2380.80
55026;DHT22;40925;45.666;18.994;2023-08-31T03:18:19;461.60;2380.80
55026;DHT22;40925;45.666;18.994;2023-08-31T03:20:45;461.60;2380.80
55026;DHT22;40925;45.666;18.994;2023-08-31T03:23:11;461.60;2380.80
55026;DHT22;40925;45.666;18.994;2023-08-31T03:25:36;461.60;2380.80
55026;DHT22;40925;45.666;18.994;2023-08-31T03:28:03;461.60;2380.80
55026;DHT22;40925;45.666;18.994;2023-08-31T03:30:29;461.60;2380.80
55026;DHT22;40925;45.666;18.994;2023-08-31T03:32:54;461.60;2380.80
55026;DHT22;40925;45.666;18.994;2023-08-31T03:35:20;461.60;2380.80
55026;DHT22;40925;45.666;18.994;2023-08-31T03:37:48;461.50;2380.80
55026;DHT22;40925;45.666;18.994;2023-08-31T03:40:14;461.60;2380.80
55026;DHT22;40925;45.666;18.994;2023-08-31T03:42:39;461.50;2380.80
55026;DHT22;40925;45.666;18.994;2023-08-31T03:45:05;461.50;2380.80
55026;DHT22;40925;45.666;18.994;2023-08-31T03:47:31;461.60;2380.80
55026;DHT22;40925;45.666;18.994;2023-08-31T03:49:57;461.60;2380.80
55026;DHT22;40925;45.666;18.994;2023-08-31T03:52:22;461.50;2380.80
55026;DHT22;40925;45.666;18.994;2023-08-31T03:54:49;461.50;2380.80
55026;DHT22;40925;45.666;18.994;2023-08-31T03:57:15;461.50;2380.80
55026;DHT22;40925;45.666;18.994;2023-08-31T03:59:41;461.50;2380.80
55026;DHT22;40925;45.666;18.994;2023-08-31T04:02:06;461.70;2380.80
55026;DHT22;40925;45.666;18.994;2023-08-31T04:04:32;461.60;2380.80
55026;DHT22;40925;45.666;18.994;2023-08-31T04:06:59;461.60;2380.80
55026;DHT22;40925;45.666;18.994;2023-08-31T04:09:25;461.50;2380.80
55026;DHT22;40925;45.666;18.994;2023-08-31T04:11:51;461.40;2380.80
55026;DHT22;40925;45.666;18.994;2023-08-31T04:14:17;461.50;2380.80
55026;DHT22;40925;45.666;18.994;2023-08-31T04:16:44;461.40;2380.80
55026;DHT22;40925;45.666;18.994;2023-08-31T04:19:10;461.40;2380.80
55026;DHT22;40925;45.666;18.994;2023-08-31T04:21:36;461.40;2380.80
55026;DHT22;40925;45.666;18.994;2023-08-31T04:24:03;461.50;2380.80
55026;DHT22;40925;45.666;18.994;2023-08-31T04:26:29;461.50;2380.80
55026;DHT22;40925;45.666;18.994;2023-08-31T04:28:55;461.50;2380.80
55026;DHT22;40925;45.666;18.994;2023-08-31T04:31:21;461.50;2380.80
55026;DHT22;40925;45.666;18.994;2023-08-31T04:33:47;461.50;2380.80
55026;DHT22;40925;45.666;18.994;2023-08-31T04:36:13;486.50;2380.80
55026;DHT22;40925;45.666;18.994;2023-08-31T04:38:39;461.50;2380.80
55026;DHT22;40925;45.666;18.994;2023-08-31T04:41:05;461.60;2380.80
55026;DHT22;40925;45.666;18.994;2023-08-31T04:43:31;461.60;2380.80
55026;DHT22;40925;45.666;18.994;2023-08-31T04:45:57;461.70;2380.80
55026;DHT22;40925;45.666;18.994;2023-08-31T04:48:22;461.70;2380.80
55026;DHT22;40925;45.666;18.994;2023-08-31T04:50:48;486.40;2380.80
55026;DHT22;40925;45.666;18.994;2023-08-31T04:53:14;486.40;2380.80
55026;DHT22;40925;45.666;18.994;2023-08-31T04:55:40;486.40;2380.80
55026;DHT22;40925;45.666;18.994;2023-08-31T04:58:05;486.40;2380.80
55026;DHT22;40925;45.666;18.994;2023-08-31T05:00:31;486.40;2380.80
55026;DHT22;40925;45.666;18.994;2023-08-31T05:02:57;486.40;2380.80
55026;DHT22;40925;45.666;18.994;2023-08-31T05:05:23;486.40;2380.80
55026;DHT22;40925;45.666;18.994;2023-08-31T05:07:49;486.40;2380.80
55026;DHT22;40925;45.666;18.994;2023-08-31T05:10:15;486.50;2380.80
55026;DHT22;40925;45.666;18.994;2023-08-31T05:12:42;486.50;2380.80
55026;DHT22;40925;45.666;18.994;2023-08-31T05:15:08;486.60;2380.80
55026;DHT22;40925;45.666;18.994;2023-08-31T05:17:35;486.50;2380.80
55026;DHT22;40925;45.666;18.994;2023-08-31T05:20:00;486.60;2380.80
55026;DHT22;40925;45.666;18.994;2023-08-31T05:22:26;486.70;2380.80
55026;DHT22;40925;45.666;18.994;2023-08-31T05:24:52;486.70;2380.80
55026;DHT22;40925;45.666;18.994;2023-08-31T05:27:17;486.90;2380.80
55026;DHT22;40925;45.666;18.994;2023-08-31T05:29:43;486.90;2380.80
55026;DHT22;40925;45.666;18.994;2023-08-31T05:32:09;486.80;2380.80
55026;DHT22;40925;45.666;18.994;2023-08-31T05:34:34;486.70;2380.80
55026;DHT22;40925;45.666;18.994;2023-08-31T05:39:30;487.00;2380.80
55026;DHT22;40925;45.666;18.994;2023-08-31T05:41:56;486.90;2380.80
55026;DHT22;40925;45.666;18.994;2023-08-31T05:44:22;486.70;2380.80
55026;DHT22;40925;45.666;18.994;2023-08-31T05:46:48;486.70;2380.80
55026;DHT22;40925;45.666;18.994;2023-08-31T05:49:14;486.70;2380.80
55026;DHT22;40925;45.666;18.994;2023-08-31T05:56:38;512.00;2380.80
55026;DHT22;40925;45.666;18.994;2023-08-31T06:03:57;512.40;2380.80
55026;DHT22;40925;45.666;18.994;2023-08-31T06:08:49;512.70;2380.80
55026;DHT22;40925;45.666;18.994;2023-08-31T06:11:15;512.40;2380.80
55026;DHT22;40925;45.666;18.994;2023-08-31T06:13:41;512.40;2380.80
55026;DHT22;40925;45.666;18.994;2023-08-31T06:16:07;512.80;2380.80
55026;DHT22;40925;45.666;18.994;2023-08-31T06:38:07;589.30;2432.00
55026;DHT22;40925;45.666;18.994;2023-08-31T06:42:59;692.10;2432.00
55026;DHT22;40925;45.666;18.994;2023-08-31T06:55:13;768.80;1945.60
55026;DHT22;40925;45.666;18.994;2023-08-31T06:57:38;793.60;1996.80
55026;DHT22;40925;45.666;18.994;2023-08-31T07:07:26;716.90;2048.00
55026;DHT22;40925;45.666;18.994;2023-08-31T07:09:52;691.60;2099.20
55026;DHT22;40925;45.666;18.994;2023-08-31T07:24:31;640.30;2432.00
55026;DHT22;40925;45.666;18.994;2023-08-31T07:26:57;640.00;2432.00
55026;DHT22;40925;45.666;18.994;2023-08-31T07:31:50;614.90;2432.00
55026;DHT22;40925;45.666;18.994;2023-08-31T07:34:16;615.00;2432.00
55026;DHT22;40925;45.666;18.994;2023-08-31T07:36:41;615.00;2432.00
55026;DHT22;40925;45.666;18.994;2023-08-31T07:39:07;615.10;2432.00
55026;DHT22;40925;45.666;18.994;2023-08-31T07:41:33;640.00;2432.00
55026;DHT22;40925;45.666;18.994;2023-08-31T07:43:59;640.00;2432.00
55026;DHT22;40925;45.666;18.994;2023-08-31T07:48:51;640.50;2432.00
55026;DHT22;40925;45.666;18.994;2023-08-31T07:51:16;640.40;2432.00
55026;DHT22;40925;45.666;18.994;2023-08-31T07:53:42;640.50;2432.00
55026;DHT22;40925;45.666;18.994;2023-08-31T07:56:08;640.30;2432.00
55026;DHT22;40925;45.666;18.994;2023-08-31T07:58:33;640.10;2432.00
55026;DHT22;40925;45.666;18.994;2023-08-31T08:03:27;640.00;2432.00
55026;DHT22;40925;45.666;18.994;2023-08-31T08:05:52;615.10;2432.00
55026;DHT22;40925;45.666;18.994;2023-08-31T08:08:18;615.20;2432.00
55026;DHT22;40925;45.666;18.994;2023-08-31T08:10:44;615.30;2432.00
55026;DHT22;40925;45.666;18.994;2023-08-31T08:13:11;640.10;2432.00
55026;DHT22;40925;45.666;18.994;2023-08-31T08:15:38;640.40;2432.00
55026;DHT22;40925;45.666;18.994;2023-08-31T08:18:04;640.50;2432.00
55026;DHT22;40925;45.666;18.994;2023-08-31T08:20:31;640.40;2432.00
55026;DHT22;40925;45.666;18.994;2023-08-31T08:22:57;640.20;2432.00
55026;DHT22;40925;45.666;18.994;2023-08-31T08:25:26;640.30;2432.00
55026;DHT22;40925;45.666;18.994;2023-08-31T08:27:55;640.30;2432.00
55026;DHT22;40925;45.666;18.994;2023-08-31T08:30:21;640.30;2432.00
55026;DHT22;40925;45.666;18.994;2023-08-31T08:33:02;640.40;2432.00
55026;DHT22;40925;45.666;18.994;2023-08-31T08:35:28;640.40;2432.00
55026;DHT22;40925;45.666;18.994;2023-08-31T08:37:53;640.30;2380.80
55026;DHT22;40925;45.666;18.994;2023-08-31T08:40:19;640.50;2406.40
55026;DHT22;40925;45.666;18.994;2023-08-31T08:45:15;640.80;2201.60
55026;DHT22;40925;45.666;18.994;2023-08-31T08:47:44;640.60;2227.20
55026;DHT22;40925;45.666;18.994;2023-08-31T08:50:13;640.50;2201.60
55026;DHT22;40925;45.666;18.994;2023-08-31T08:52:39;640.70;2176.00
55026;DHT22;40925;45.666;18.994;2023-08-31T08:55:06;640.60;2201.60
55026;DHT22;40925;45.666;18.994;2023-08-31T08:57:33;640.60;2227.20
55026;DHT22;40925;45.666;18.994;2023-08-31T08:59:59;640.40;2252.80
55026;DHT22;40925;45.666;18.994;2023-08-31T09:02:24;640.30;2278.40
55026;DHT22;40925;45.666;18.994;2023-08-31T09:05:08;640.40;2278.40
55026;DHT22;40925;45.666;18.994;2023-08-31T09:07:35;640.40;2252.80
55026;DHT22;40925;45.666;18.994;2023-08-31T09:10:02;640.30;2278.40
55026;DHT22;40925;45.666;18.994;2023-08-31T09:12:30;640.40;2252.80
55026;DHT22;40925;45.666;18.994;2023-08-31T09:15:01;640.20;2304.00
55026;DHT22;40925;45.666;18.994;2023-08-31T09:17:41;640.30;2304.00
55026;DHT22;40925;45.666;18.994;2023-08-31T09:20:09;640.20;2329.60
55026;DHT22;40925;45.666;18.994;2023-08-31T09:22:35;640.10;2278.40
55026;DHT22;40925;45.666;18.994;2023-08-31T09:25:01;640.20;2304.00
55026;DHT22;40925;45.666;18.994;2023-08-31T09:27:28;640.40;2278.40
55026;DHT22;40925;45.666;18.994;2023-08-31T09:29:58;640.60;2227.20
55026;DHT22;40925;45.666;18.994;2023-08-31T09:32:23;640.60;2176.00
55026;DHT22;40925;45.666;18.994;2023-08-31T09:34:49;640.60;2227.20
55026;DHT22;40925;45.666;18.994;2023-08-31T09:37:16;640.60;2150.40
55026;DHT22;40925;45.666;18.994;2023-08-31T09:39:42;640.60;2227.20
55026;DHT22;40925;45.666;18.994;2023-08-31T09:42:08;640.80;2201.60
55026;DHT22;40925;45.666;18.994;2023-08-31T09:44:40;665.60;2150.40
55026;DHT22;40925;45.666;18.994;2023-08-31T09:47:09;665.70;2150.40
55026;DHT22;40925;45.666;18.994;2023-08-31T09:49:37;665.60;2176.00
55026;DHT22;40925;45.666;18.994;2023-08-31T09:52:05;665.70;2150.40
55026;DHT22;40925;45.666;18.994;2023-08-31T09:54:35;640.90;2124.80
55026;DHT22;40925;45.666;18.994;2023-08-31T09:57:02;665.60;2150.40
55026;DHT22;40925;45.666;18.994;2023-08-31T09:59:29;640.90;2124.80
55026;DHT22;40925;45.666;18.994;2023-08-31T10:06:53;665.60;2176.00
55026;DHT22;40925;45.666;18.994;2023-08-31T10:16:39;691.50;1996.80
55026;DHT22;40925;45.666;18.994;2023-08-31T10:19:06;691.50;2022.40
55026;DHT22;40925;45.666;18.994;2023-08-31T10:21:32;691.30;1996.80
55026;DHT22;40925;45.666;18.994;2023-08-31T10:23:59;665.90;1971.20
55026;DHT22;40925;45.666;18.994;2023-08-31T10:39:04;640.80;2048.00
55026;DHT22;40925;45.666;18.994;2023-08-31T10:41:40;640.90;1996.80
55026;DHT22;40925;45.666;18.994;2023-08-31T10:44:18;665.60;2048.00
55026;DHT22;40925;45.666;18.994;2023-08-31T10:46:45;640.80;2099.20
55026;DHT22;40925;45.666;18.994;2023-08-31T10:51:40;640.40;2176.00
55026;DHT22;40925;45.666;18.994;2023-08-31T10:54:34;640.30;2432.00
55026;DHT22;40925;45.666;18.994;2023-08-31T10:59:27;615.10;2252.80
55026;DHT22;40925;45.666;18.994;2023-08-31T11:46:30;640.50;2304.00
55026;DHT22;40925;45.666;18.994;2023-08-31T11:49:01;640.80;2278.40
55026;DHT22;40925;45.666;18.994;2023-08-31T11:51:30;640.90;2252.80
55026;DHT22;40925;45.666;18.994;2023-08-31T11:58:51;691.20;2099.20
55026;DHT22;40925;45.666;18.994;2023-08-31T12:01:18;691.70;2073.60
55026;DHT22;40925;45.666;18.994;2023-08-31T12:03:48;691.70;1996.80
55026;DHT22;40925;45.666;18.994;2023-08-31T12:06:18;691.60;2073.60
55026;DHT22;40925;45.666;18.994;2023-08-31T12:08:44;691.30;2048.00
55026;DHT22;40925;45.666;18.994;2023-08-31T12:11:10;666.40;2073.60
55026;DHT22;40925;45.666;18.994;2023-08-31T12:13:36;666.50;2048.00
55026;DHT22;40925;45.666;18.994;2023-08-31T12:16:01;666.20;2073.60
55026;DHT22;40925;45.666;18.994;2023-08-31T12:18:30;666.10;2048.00
55026;DHT22;40925;45.666;18.994;2023-08-31T12:23:25;666.10;2048.00
55026;DHT22;40925;45.666;18.994;2023-08-31T12:25:53;665.90;2048.00
55026;DHT22;40925;45.666;18.994;2023-08-31T12:28:21;640.90;2099.20
55026;DHT22;40925;45.666;18.994;2023-08-31T12:30:50;640.90;2124.80
55026;DHT22;40925;45.666;18.994;2023-08-31T12:33:17;640.80;2124.80
55026;DHT22;40925;45.666;18.994;2023-08-31T12:47:57;666.00;2329.60
55026;DHT22;40925;45.666;18.994;2023-08-31T12:50:23;666.00;2329.60
55026;DHT22;40925;45.666;18.994;2023-08-31T12:52:49;691.60;2252.80
55026;DHT22;40925;45.666;18.994;2023-08-31T12:57:42;691.70;2252.80
55026;DHT22;40925;45.666;18.994;2023-08-31T13:00:10;691.20;2278.40
55026;DHT22;40925;45.666;18.994;2023-08-31T13:02:40;666.40;2329.60
55026;DHT22;40925;45.666;18.994;2023-08-31T13:05:08;666.20;2278.40
55026;DHT22;40925;45.666;18.994;2023-08-31T13:07:38;665.80;2355.20
55026;DHT22;40925;45.666;18.994;2023-08-31T13:17:27;640.90;2278.40
55026;DHT22;40925;45.666;18.994;2023-08-31T13:34:33;640.50;2304.00
55026;DHT22;40925;45.666;18.994;2023-08-31T13:36:59;640.00;2304.00
55026;DHT22;40925;45.666;18.994;2023-08-31T13:41:52;614.90;2406.40
55026;DHT22;40925;45.666;18.994;2023-08-31T14:30:44;614.90;2432.00
55026;DHT22;40925;45.666;18.994;2023-08-31T14:33:10;615.00;2432.00
55026;DHT22;40925;45.666;18.994;2023-08-31T14:35:37;640.10;2432.00
55026;DHT22;40925;45.666;18.994;2023-08-31T14:38:03;640.50;2432.00
55026;DHT22;40925;45.666;18.994;2023-08-31T14:40:29;640.80;2406.40
55026;DHT22;40925;45.666;18.994;2023-08-31T14:42:54;640.80;2329.60
55026;DHT22;40925;45.666;18.994;2023-08-31T14:45:20;665.80;2406.40
55026;DHT22;40925;45.666;18.994;2023-08-31T15:07:18;665.60;2227.20
55026;DHT22;40925;45.666;18.994;2023-08-31T15:09:44;640.30;2304.00
55026;DHT22;40925;45.666;18.994;2023-08-31T15:12:10;615.30;2355.20
55026;DHT22;40925;45.666;18.994;2023-08-31T15:14:37;615.20;2406.40
55026;DHT22;40925;45.666;18.994;2023-08-31T15:17:04;614.90;2432.00
55026;DHT22;40925;45.666;18.994;2023-08-31T15:19:30;614.90;2432.00
55026;DHT22;40925;45.666;18.994;2023-08-31T15:21:58;614.90;2432.00
55026;DHT22;40925;45.666;18.994;2023-08-31T15:24:24;614.70;2432.00
55026;DHT22;40925;45.666;18.994;2023-08-31T15:26:51;615.10;2432.00
55026;DHT22;40925;45.666;18.994;2023-08-31T15:29:17;615.00;2432.00
55026;DHT22;40925;45.666;18.994;2023-08-31T15:31:43;615.20;2432.00
55026;DHT22;40925;45.666;18.994;2023-08-31T15:34:12;640.00;2432.00
55026;DHT22;40925;45.666;18.994;2023-08-31T15:36:38;640.10;2406.40
55026;DHT22;40925;45.666;18.994;2023-08-31T15:39:04;640.00;2432.00
55026;DHT22;40925;45.666;18.994;2023-08-31T15:41:29;615.30;2432.00
55026;DHT22;40925;45.666;18.994;2023-08-31T15:44:00;640.10;2432.00
55026;DHT22;40925;45.666;18.994;2023-08-31T15:46:26;615.30;2432.00
55026;DHT22;40925;45.666;18.994;2023-08-31T15:48:52;615.30;2432.00
55026;DHT22;40925;45.666;18.994;2023-08-31T15:51:17;615.30;2432.00
55026;DHT22;40925;45.666;18.994;2023-08-31T15:53:43;615.30;2432.00
55026;DHT22;40925;45.666;18.994;2023-08-31T15:56:09;640.20;2432.00
55026;DHT22;40925;45.666;18.994;2023-08-31T15:58:37;640.30;2406.40
55026;DHT22;40925;45.666;18.994;2023-08-31T16:01:09;640.30;2432.00
55026;DHT22;40925;45.666;18.994;2023-08-31T16:03:34;640.30;2380.80
55026;DHT22;40925;45.666;18.994;2023-08-31T16:06:00;615.30;2329.60
55026;DHT22;40925;45.666;18.994;2023-08-31T16:10:54;614.90;2355.20
55026;DHT22;40925;45.666;18.994;2023-08-31T16:13:20;614.60;2406.40
55026;DHT22;40925;45.666;18.994;2023-08-31T16:15:48;614.50;2432.00
55026;DHT22;40925;45.666;18.994;2023-08-31T16:20:42;614.50;2406.40
55026;DHT22;40925;45.666;18.994;2023-08-31T16:23:08;614.50;2406.40
55026;DHT22;40925;45.666;18.994;2023-08-31T16:25:34;589.50;2432.00
55026;DHT22;40925;45.666;18.994;2023-08-31T16:28:00;589.50;2432.00
55026;DHT22;40925;45.666;18.994;2023-08-31T16:30:26;589.50;2432.00
55026;DHT22;40925;45.666;18.994;2023-08-31T16:32:53;589.40;2432.00
55026;DHT22;40925;45.666;18.994;2023-08-31T16:35:18;589.40;2432.00
55026;DHT22;40925;45.666;18.994;2023-08-31T16:37:44;589.50;2432.00
55026;DHT22;40925;45.666;18.994;2023-08-31T16:40:12;589.20;2432.00
55026;DHT22;40925;45.666;18.994;2023-08-31T16:42:41;589.10;2432.00
55026;DHT22;40925;45.666;18.994;2023-08-31T16:45:08;589.20;2432.00
55026;DHT22;40925;45.666;18.994;2023-08-31T16:47:35;588.90;2432.00
55026;DHT22;40925;45.666;18.994;2023-08-31T16:50:01;589.10;2432.00
55026;DHT22;40925;45.666;18.994;2023-08-31T16:52:30;588.80;2432.00
55026;DHT22;40925;45.666;18.994;2023-08-31T16:54:56;588.80;2432.00
55026;DHT22;40925;45.666;18.994;2023-08-31T16:57:22;564.10;2432.00
55026;DHT22;40925;45.666;18.994;2023-08-31T16:59:47;564.00;2432.00
55026;DHT22;40925;45.666;18.994;2023-08-31T17:02:13;563.90;2432.00
55026;DHT22;40925;45.666;18.994;2023-08-31T17:04:39;563.90;2432.00
55026;DHT22;40925;45.666;18.994;2023-08-31T17:07:05;563.70;2432.00
55026;DHT22;40925;45.666;18.994;2023-08-31T17:09:33;563.70;2432.00
55026;DHT22;40925;45.666;18.994;2023-08-31T17:11:59;563.60;2432.00
55026;DHT22;40925;45.666;18.994;2023-08-31T17:14:28;563.60;2432.00
55026;DHT22;40925;45.666;18.994;2023-08-31T17:16:54;563.70;2432.00
55026;DHT22;40925;45.666;18.994;2023-08-31T17:19:19;563.70;2432.00
55026;DHT22;40925;45.666;18.994;2023-08-31T17:21:45;563.70;2432.00
55026;DHT22;40925;45.666;18.994;2023-08-31T17:24:11;563.60;2432.00
55026;DHT22;40925;45.666;18.994;2023-08-31T17:26:37;563.50;2432.00
55026;DHT22;40925;45.666;18.994;2023-08-31T17:29:03;563.50;2432.00
55026;DHT22;40925;45.666;18.994;2023-08-31T17:31:30;563.50;2432.00
55026;DHT22;40925;45.666;18.994;2023-08-31T17:33:55;563.50;2432.00
55026;DHT22;40925;45.666;18.994;2023-08-31T17:36:24;563.30;2432.00
55026;DHT22;40925;45.666;18.994;2023-08-31T17:38:51;563.30;2432.00
55026;DHT22;40925;45.666;18.994;2023-08-31T17:41:17;563.20;2432.00
55026;DHT22;40925;45.666;18.994;2023-08-31T17:43:43;538.50;2406.40
55026;DHT22;40925;45.666;18.994;2023-08-31T17:46:09;538.40;2406.40
55026;DHT22;40925;45.666;18.994;2023-08-31T17:48:34;563.20;2432.00
55026;DHT22;40925;45.666;18.994;2023-08-31T17:51:01;538.40;2406.40
55026;DHT22;40925;45.666;18.994;2023-08-31T17:53:27;538.30;2406.40
55026;DHT22;40925;45.666;18.994;2023-08-31T17:55:53;538.10;2406.40
55026;DHT22;40925;45.666;18.994;2023-08-31T17:58:19;538.20;2406.40
55026;DHT22;40925;45.666;18.994;2023-08-31T18:00:45;538.10;2406.40
55026;DHT22;40925;45.666;18.994;2023-08-31T18:03:10;538.10;2406.40
55026;DHT22;40925;45.666;18.994;2023-08-31T18:05:36;537.90;2406.40
55026;DHT22;40925;45.666;18.994;2023-08-31T18:08:02;537.90;2406.40
55026;DHT22;40925;45.666;18.994;2023-08-31T18:10:28;537.80;2406.40
55026;DHT22;40925;45.666;18.994;2023-08-31T18:12:54;537.80;2406.40
55026;DHT22;40925;45.666;18.994;2023-08-31T18:15:20;537.90;2406.40
55026;DHT22;40925;45.666;18.994;2023-08-31T18:17:46;537.80;2406.40
55026;DHT22;40925;45.666;18.994;2023-08-31T18:20:13;537.70;2406.40
55026;DHT22;40925;45.666;18.994;2023-08-31T18:22:39;537.70;2406.40
55026;DHT22;40925;45.666;18.994;2023-08-31T18:25:06;537.80;2406.40
55026;DHT22;40925;45.666;18.994;2023-08-31T18:27:32;512.90;2380.80
55026;DHT22;40925;45.666;18.994;2023-08-31T18:29:58;512.80;2380.80
55026;DHT22;40925;45.666;18.994;2023-08-31T18:32:24;512.80;2380.80
55026;DHT22;40925;45.666;18.994;2023-08-31T18:34:50;512.70;2380.80
55026;DHT22;40925;45.666;18.994;2023-08-31T18:37:18;512.70;2380.80
55026;DHT22;40925;45.666;18.994;2023-08-31T18:39:44;512.70;2380.80
55026;DHT22;40925;45.666;18.994;2023-08-31T18:42:11;512.70;2380.80
55026;DHT22;40925;45.666;18.994;2023-08-31T18:44:37;512.60;2380.80
55026;DHT22;40925;45.666;18.994;2023-08-31T18:47:03;512.80;2380.80
55026;DHT22;40925;45.666;18.994;2023-08-31T18:49:29;512.50;2380.80
55026;DHT22;40925;45.666;18.994;2023-08-31T18:51:56;512.50;2380.80
55026;DHT22;40925;45.666;18.994;2023-08-31T18:54:21;512.40;2380.80
55026;DHT22;40925;45.666;18.994;2023-08-31T18:56:47;512.30;2380.80
55026;DHT22;40925;45.666;18.994;2023-08-31T18:59:13;512.40;2380.80
55026;DHT22;40925;45.666;18.994;2023-08-31T19:01:39;512.20;2380.80
55026;DHT22;40925;45.666;18.994;2023-08-31T19:21:14;512.20;2380.80
55026;DHT22;40925;45.666;18.994;2023-08-31T19:23:41;512.00;2380.80
55026;DHT22;40925;45.666;18.994;2023-08-31T19:26:08;487.20;2380.80
55026;DHT22;40925;45.666;18.994;2023-08-31T20:22:30;486.90;2380.80
55026;DHT22;40925;45.666;18.994;2023-08-31T20:24:56;486.60;2380.80
55026;DHT22;40925;45.666;18.994;2023-08-31T20:27:22;486.70;2380.80
55026;DHT22;40925;45.666;18.994;2023-08-31T20:29:47;486.40;2380.80